Bristol, Georgia
Current Conditions -  °F | °C
As of 8:55 PM on Wednesday 26 Nov 2014 (Local Time) from KAYS Reporting Station
Clear Clear  
Wind Chill:   Ceiling: Unl
Heat Index:   Visibility: 10mi
Dew Point:   Wind: 6mph
Humidity: 71%   Direction: 250°WSW
Pressure: 30.17"   Gusts: NA
Location:  31.45°N, 82.21°W
Report Text: KAYS 270155Z AUTO 25005KT 10SM CLR 09/04 A3017 RMK AO2 T00910040
Loading
Personal Weather Stations






























Interactive Weather Map New forecast layout! Learn more

10-Day Weather Forecast

Advertisements
Track Severe Weather on mobile